createdAt,value
2022-09-11T00:00:52.733Z,95015.91
2022-09-11T00:03:21.472Z,95009.59
2022-09-11T00:05:50.520Z,95019.19
2022-09-11T00:08:21.305Z,95010.97
2022-09-11T00:10:49.584Z,95003.84
2022-09-11T00:13:21.256Z,95013.72
2022-09-11T00:15:51.337Z,95013.97
2022-09-11T00:18:21.592Z,95008.22
2022-09-11T00:20:52.230Z,95009.84
2022-09-11T00:23:21.089Z,95021.31
2022-09-11T00:25:49.262Z,95013.69
2022-09-11T00:28:19.812Z,95016.16
2022-09-11T00:30:48.450Z,95010.09
2022-09-11T00:33:16.798Z,95013.16
2022-09-11T00:35:44.659Z,95010.16
2022-09-11T00:38:17.255Z,95014.78
2022-09-11T00:40:46.419Z,95006.03
2022-09-11T00:43:15.185Z,95012.91
2022-09-11T00:45:42.847Z,95004.97
2022-09-11T00:48:12.951Z,95005.22
2022-09-11T00:50:44.713Z,95015.63
2022-09-11T00:53:16.082Z,95005.50
2022-09-11T00:55:47.578Z,95005.50
2022-09-11T00:58:17.818Z,95005.25
2022-09-11T01:00:46.513Z,95002.53
2022-09-11T01:03:14.330Z,95001.66
2022-09-11T01:05:43.712Z,94999.50
2022-09-11T01:08:14.512Z,94998.91
2022-09-11T01:10:52.023Z,94996.75
2022-09-11T01:13:29.011Z,95002.22
2022-09-11T01:16:04.152Z,95000.56
2022-09-11T01:18:34.371Z,94997.56
2022-09-11T01:21:14.933Z,95003.31
2022-09-11T01:23:56.636Z,94989.06
2022-09-11T01:26:39.247Z,94995.63
2022-09-11T01:29:16.006Z,94991.75
2022-09-11T01:31:47.107Z,94995.28
2022-09-11T01:34:17.675Z,94990.09
2022-09-11T01:36:49.575Z,94993.63
2022-09-11T01:39:21.469Z,94992.53
2022-09-11T01:41:52.185Z,94985.69
2022-09-11T01:44:25.343Z,94984.06
2022-09-11T01:46:54.124Z,94987.34
2022-09-11T01:49:26.126Z,94991.75
2022-09-11T01:51:57.304Z,94990.09
2022-09-11T01:54:31.891Z,94994.47
2022-09-11T01:57:02.975Z,94985.16
2022-09-11T01:59:36.203Z,94988.72
2022-09-11T02:02:07.778Z,94990.59
2022-09-11T02:04:38.963Z,94982.13
2022-09-11T02:07:08.890Z,94983.81
2022-09-11T02:09:40.750Z,94980.22
2022-09-11T02:12:10.008Z,94983.53
2022-09-11T02:14:41.290Z,94978.34
2022-09-11T02:17:16.464Z,94989.00
2022-09-11T02:19:44.858Z,94987.09
2022-09-11T02:22:12.951Z,94984.91
2022-09-11T02:24:40.691Z,94983.28
2022-09-11T02:27:11.285Z,94983.81
2022-09-11T02:29:40.389Z,94976.41
2022-09-11T02:32:10.870Z,94982.69
2022-09-11T02:34:40.762Z,94980.22
2022-09-11T02:37:20.253Z,94991.16
2022-09-11T02:40:00.443Z,94980.50
2022-09-11T02:42:36.417Z,94986.25
2022-09-11T02:45:17.792Z,94983.25
2022-09-11T02:47:53.282Z,94983.53
2022-09-11T02:50:27.279Z,94978.59
2022-09-11T02:52:59.421Z,94982.41
2022-09-11T02:55:32.986Z,94976.94
2022-09-11T02:58:04.428Z,94987.88
2022-09-11T03:00:33.535Z,94985.97
2022-09-11T03:03:01.247Z,94986.53
2022-09-11T03:05:29.474Z,94992.53
2022-09-11T03:07:57.782Z,94981.59
2022-09-11T03:10:27.671Z,94976.13
2022-09-11T03:12:55.811Z,94981.88
2022-09-11T03:15:23.660Z,94979.97
2022-09-11T03:17:52.732Z,94978.06
2022-09-11T03:20:22.003Z,94970.13
2022-09-11T03:22:49.653Z,94980.81
2022-09-11T03:25:17.820Z,94973.41
2022-09-11T03:27:45.443Z,94977.50
2022-09-11T03:30:13.746Z,94973.94
2022-09-11T03:32:41.409Z,94976.94
2022-09-11T03:35:11.397Z,94971.72
2022-09-11T03:37:39.026Z,94972.56
2022-09-11T03:40:07.947Z,94970.13
2022-09-11T03:42:35.671Z,94965.47
2022-09-11T03:45:04.106Z,94962.47
2022-09-11T03:47:32.042Z,94969.59
2022-09-11T03:49:59.743Z,94961.66
2022-09-11T03:52:30.324Z,94967.69
2022-09-11T03:54:58.188Z,94953.19
2022-09-11T03:57:25.880Z,94969.28
2022-09-11T03:59:56.053Z,94957.28
2022-09-11T04:02:24.479Z,94966.63
2022-09-11T04:04:52.035Z,94972.09
2022-09-11T04:07:19.697Z,94961.66
2022-09-11T04:09:48.651Z,94972.34
2022-09-11T04:12:16.637Z,94966.63
2022-09-11T04:14:44.388Z,94964.72
2022-09-11T04:17:12.551Z,94964.13
2022-09-11T04:19:40.153Z,94967.69
2022-09-11T04:22:08.770Z,94971.75
2022-09-11T04:24:36.406Z,94972.34
2022-09-11T04:27:06.039Z,94973.16
2022-09-11T04:29:34.646Z,94981.94
2022-09-11T04:32:02.586Z,94975.13
2022-09-11T04:34:30.174Z,94975.13
2022-09-11T04:36:57.840Z,94972.41
2022-09-11T04:39:25.410Z,94973.22
2022-09-11T04:41:53.071Z,94978.69
2022-09-11T04:44:22.062Z,94978.16
2022-09-11T04:46:49.691Z,94975.97
2022-09-11T04:49:17.267Z,94982.25
2022-09-11T04:51:45.235Z,94979.28
2022-09-11T04:54:14.847Z,94979.84
2022-09-11T04:56:42.487Z,94983.66
2022-09-11T04:59:13.848Z,94981.44
2022-09-11T05:01:44.181Z,94973.78
2022-09-11T05:04:12.758Z,94978.16
2022-09-11T05:06:40.666Z,94981.97
2022-09-11T05:09:10.367Z,94977.88
2022-09-11T05:11:39.327Z,94972.97
2022-09-11T05:14:07.169Z,94978.44
2022-09-11T05:16:35.293Z,94979.50
2022-09-11T05:19:05.213Z,94975.41
2022-09-11T05:21:33.309Z,94980.03
2022-09-11T05:24:02.193Z,94972.94
2022-09-11T05:26:31.444Z,94984.69
2022-09-11T05:29:00.825Z,94986.59
2022-09-11T05:31:29.982Z,94984.69
2022-09-11T05:33:59.065Z,94994.81
2022-09-11T05:36:31.001Z,94994.28
2022-09-11T05:38:59.422Z,95003.31
2022-09-11T05:41:27.309Z,95001.97
2022-09-11T05:43:55.526Z,95002.22
2022-09-11T05:46:23.568Z,95008.25
2022-09-11T05:48:51.249Z,94998.38
2022-09-11T05:51:20.277Z,95005.50
2022-09-11T05:53:50.446Z,95008.81
2022-09-11T05:56:19.692Z,95007.47
2022-09-11T05:58:48.604Z,95005.28
2022-09-11T06:01:17.606Z,95005.56
2022-09-11T06:03:47.418Z,95022.53
2022-09-11T06:06:15.238Z,95022.81
2022-09-11T06:08:44.215Z,95020.91
2022-09-11T06:11:14.345Z,95030.22
2022-09-11T06:13:43.454Z,95033.22
2022-09-11T06:16:15.959Z,95033.00
2022-09-11T06:18:49.315Z,95034.94
2022-09-11T06:21:19.162Z,95037.97
2022-09-11T06:23:47.702Z,95047.31
2022-09-11T06:26:17.907Z,95049.22
2022-09-11T06:28:45.622Z,95042.16
2022-09-11T06:31:16.322Z,95041.38
2022-09-11T06:33:44.319Z,95044.94
2022-09-11T06:36:13.977Z,95048.50
2022-09-11T06:38:41.684Z,95048.50
2022-09-11T06:41:12.579Z,95051.00
2022-09-11T06:43:42.014Z,95050.19
2022-09-11T06:46:12.511Z,95060.88
2022-09-11T06:48:40.433Z,95047.47
2022-09-11T06:51:11.351Z,95051.88
2022-09-11T06:53:39.464Z,95061.16
2022-09-11T06:56:08.003Z,95055.97
2022-09-11T06:58:35.926Z,95061.75
2022-09-11T07:01:05.780Z,95059.00
2022-09-11T07:03:33.690Z,95055.44
2022-09-11T07:06:01.699Z,95052.97
2022-09-11T07:08:29.327Z,95058.47
2022-09-11T07:11:02.826Z,95056.00
2022-09-11T07:13:33.278Z,95063.72
2022-09-11T07:16:05.712Z,95065.09
2022-09-11T07:18:34.917Z,95064.31
2022-09-11T07:21:05.742Z,95065.94
2022-09-11T07:23:34.776Z,95075.28
2022-09-11T07:26:04.004Z,95074.44
2022-09-11T07:28:31.908Z,95075.28
2022-09-11T07:31:10.569Z,95078.31
2022-09-11T07:33:38.817Z,95073.38
2022-09-11T07:36:11.866Z,95090.38
2022-09-11T07:38:40.744Z,95073.41
2022-09-11T07:41:08.886Z,95073.47
2022-09-11T07:43:36.790Z,95078.41
2022-09-11T07:46:04.795Z,95088.31
2022-09-11T07:48:34.073Z,95085.00
2022-09-11T07:51:04.364Z,95084.44
2022-09-11T07:53:34.388Z,95091.59
2022-09-11T07:56:05.800Z,95097.69
2022-09-11T07:58:35.076Z,95097.41
2022-09-11T08:01:03.686Z,95103.19
2022-09-11T08:03:33.136Z,95103.44
2022-09-11T08:06:01.615Z,95107.00
2022-09-11T08:08:32.356Z,95110.88
2022-09-11T08:11:04.516Z,95107.28
2022-09-11T08:13:32.042Z,95111.94
2022-09-11T08:15:59.907Z,95120.19
2022-09-11T08:18:28.052Z,95118.25
2022-09-11T08:21:02.898Z,95116.91
2022-09-11T08:23:32.188Z,95125.94
2022-09-11T08:26:05.641Z,95128.41
2022-09-11T08:28:33.902Z,95134.19
2022-09-11T08:31:02.249Z,95142.69
2022-09-11T08:33:30.123Z,95136.13
2022-09-11T08:36:00.705Z,95129.81
2022-09-11T08:38:28.883Z,95138.59
2022-09-11T08:40:57.512Z,95145.47
2022-09-11T08:43:27.750Z,95150.66
2022-09-11T08:45:57.359Z,95148.75
2022-09-11T08:48:31.753Z,95146.84
2022-09-11T08:51:01.394Z,95148.50
2022-09-11T08:53:29.973Z,95148.22
2022-09-11T08:56:01.403Z,95162.47
2022-09-11T08:58:36.489Z,95151.78
2022-09-11T09:01:09.477Z,95166.03
2022-09-11T09:03:51.159Z,95167.97
2022-09-11T09:06:36.729Z,95160.00
2022-09-11T09:09:11.481Z,95165.47
2022-09-11T09:11:44.265Z,95160.53
2022-09-11T09:14:32.076Z,95166.31
2022-09-11T09:17:01.892Z,95165.22
2022-09-11T09:19:32.945Z,95169.38
2022-09-11T09:22:07.102Z,95157.28
2022-09-11T09:24:38.121Z,95176.22
2022-09-11T09:27:08.870Z,95178.94
2022-09-11T09:29:39.481Z,95169.91
2022-09-11T09:32:11.174Z,95171.81
2022-09-11T09:34:39.840Z,95177.28
2022-09-11T09:37:16.239Z,95178.69
2022-09-11T09:39:43.910Z,95172.13
2022-09-11T09:42:24.164Z,95171.59
2022-09-11T09:45:04.224Z,95175.16
2022-09-11T09:47:32.055Z,95177.63
2022-09-11T09:49:59.993Z,95179.56
2022-09-11T09:52:34.156Z,95178.72
2022-09-11T09:55:04.305Z,95177.88
2022-09-11T09:57:34.335Z,95181.75
2022-09-11T10:00:06.382Z,95184.50
2022-09-11T10:02:39.994Z,95188.06
2022-09-11T10:05:17.887Z,95175.69
2022-09-11T10:07:52.040Z,95180.34
2022-09-11T10:10:41.485Z,95174.84
2022-09-11T10:13:25.032Z,95173.72
2022-09-11T10:15:54.107Z,95175.03
2022-09-11T10:18:33.600Z,95172.53
2022-09-11T10:21:33.352Z,95175.78
2022-09-11T10:24:04.578Z,95178.28
2022-09-11T10:26:35.054Z,95165.06
2022-09-11T10:29:08.100Z,95177.16
2022-09-11T10:31:37.234Z,95176.06
2022-09-11T10:34:05.990Z,95186.47
2022-09-11T10:36:35.110Z,95178.19
2022-09-11T10:39:04.290Z,95189.25
2022-09-11T10:41:34.176Z,95184.00
2022-09-11T10:44:03.192Z,95189.97
2022-09-11T10:46:40.972Z,95184.19
2022-09-11T10:49:20.096Z,95187.75
2022-09-11T10:52:02.918Z,95189.31
2022-09-11T10:54:41.225Z,95181.19
2022-09-11T10:57:16.327Z,95174.00
2022-09-11T10:59:47.438Z,95176.25
2022-09-11T11:02:20.426Z,95180.31
2022-09-11T11:04:48.536Z,95181.28
2022-09-11T11:07:25.950Z,95183.41
2022-09-11T11:10:02.459Z,95185.28
2022-09-11T11:12:42.366Z,95185.28
2022-09-11T11:15:37.154Z,95198.09
2022-09-11T11:18:19.503Z,95195.09
2022-09-11T11:20:48.652Z,95186.53
2022-09-11T11:23:59.493Z,95193.97
2022-09-11T11:26:37.754Z,95193.19
2022-09-11T11:29:22.531Z,95195.34
2022-09-11T11:32:05.184Z,95193.69
2022-09-11T11:34:40.866Z,95199.22
2022-09-11T11:37:13.369Z,95205.78
2022-09-11T11:39:48.020Z,95204.38
2022-09-11T11:42:22.922Z,95205.78
2022-09-11T11:44:54.346Z,95210.41
2022-09-11T11:47:25.403Z,95211.25
2022-09-11T11:49:59.337Z,95209.09
2022-09-11T11:52:38.721Z,95204.38
2022-09-11T11:55:16.871Z,95213.44
2022-09-11T11:57:49.669Z,95210.69
2022-09-11T12:00:18.835Z,95213.41
2022-09-11T12:02:50.966Z,95214.44
2022-09-11T12:05:19.189Z,95221.03
2022-09-11T12:07:48.609Z,95213.81
2022-09-11T12:10:23.457Z,95206.31
2022-09-11T12:12:55.400Z,95204.28
2022-09-11T12:15:25.675Z,95204.44
2022-09-11T12:18:01.322Z,95201.84
2022-09-11T12:20:36.262Z,95199.47
2022-09-11T12:23:10.464Z,95211.03
2022-09-11T12:25:53.767Z,95212.69
2022-09-11T12:28:25.133Z,95211.25
2022-09-11T12:31:01.470Z,95202.31
2022-09-11T12:33:55.434Z,95200.50
2022-09-11T12:36:33.839Z,95209.31
2022-09-11T12:39:04.200Z,95210.44
2022-09-11T12:41:34.302Z,95219.84
2022-09-11T12:44:04.289Z,95210.25
2022-09-11T12:47:18.339Z,95212.22
2022-09-11T12:49:54.669Z,95207.94
2022-09-11T12:52:36.384Z,95206.09
2022-09-11T12:55:09.509Z,95211.78
2022-09-11T12:57:45.831Z,95205.59
2022-09-11T13:00:23.984Z,95202.91
2022-09-11T13:02:55.329Z,95197.09
2022-09-11T13:05:34.694Z,95193.22
2022-09-11T13:08:05.684Z,95197.69
2022-09-11T13:10:36.283Z,95203.34
2022-09-11T13:13:05.675Z,95200.91
2022-09-11T13:15:44.289Z,95207.16
2022-09-11T13:18:32.086Z,95209.91
2022-09-11T13:21:01.338Z,95201.97
2022-09-11T13:23:29.599Z,95195.50
2022-09-11T13:25:58.120Z,95195.16
2022-09-11T13:28:27.568Z,95202.84
2022-09-11T13:30:59.521Z,95195.81
2022-09-11T13:33:29.095Z,95189.09
2022-09-11T13:35:58.575Z,95190.03
2022-09-11T13:38:30.063Z,95184.09
2022-09-11T13:40:58.996Z,95179.03
2022-09-11T13:43:29.845Z,95183.81
2022-09-11T13:46:12.246Z,95189.66
2022-09-11T13:48:39.842Z,95189.38
2022-09-11T13:51:08.046Z,95194.59
2022-09-11T13:53:36.891Z,95193.13
2022-09-11T13:56:04.649Z,95186.03
2022-09-11T13:58:35.869Z,95189.31
2022-09-11T14:01:12.184Z,95182.09
2022-09-11T14:03:40.835Z,95184.78
2022-09-11T14:06:11.513Z,95183.06
2022-09-11T14:08:40.411Z,95173.47
2022-09-11T14:11:11.567Z,95182.41
2022-09-11T14:13:44.481Z,95181.22
2022-09-11T14:16:21.620Z,95180.63
2022-09-11T14:18:52.767Z,95181.22
2022-09-11T14:21:23.321Z,95177.41
2022-09-11T14:23:52.821Z,95182.41
2022-09-11T14:26:21.589Z,95181.34
2022-09-11T14:29:00.784Z,95178.06
2022-09-11T14:31:34.020Z,95177.03
2022-09-11T14:34:20.893Z,95179.00
2022-09-11T14:36:53.018Z,95171.97
2022-09-11T14:39:27.797Z,95179.34
2022-09-11T14:41:56.253Z,95174.81
2022-09-11T14:44:28.061Z,95179.44
2022-09-11T14:46:59.170Z,95183.25
2022-09-11T14:49:27.112Z,95177.72
2022-09-11T14:51:58.220Z,95180.19
2022-09-11T14:54:27.542Z,95179.81
2022-09-11T14:56:55.355Z,95173.34
2022-09-11T14:59:22.985Z,95176.22
2022-09-11T15:01:52.249Z,95169.06
2022-09-11T15:04:23.031Z,95173.34
2022-09-11T15:06:53.145Z,95170.88
2022-09-11T15:09:23.422Z,95162.38
2022-09-11T15:11:52.335Z,95169.72
2022-09-11T15:14:38.138Z,95168.91
2022-09-11T15:17:09.823Z,95166.91
2022-09-11T15:19:39.513Z,95162.75
2022-09-11T15:22:08.299Z,95160.22
2022-09-11T15:24:35.943Z,95158.28
2022-09-11T15:27:04.001Z,95169.63
2022-09-11T15:29:32.124Z,95165.06
2022-09-11T15:32:01.081Z,95167.59
2022-09-11T15:34:31.653Z,95172.78
2022-09-11T15:37:00.710Z,95164.50
2022-09-11T15:39:28.890Z,95163.47
2022-09-11T15:41:56.976Z,95159.31
2022-09-11T15:44:26.219Z,95160.13
2022-09-11T15:46:55.414Z,95157.66
2022-09-11T15:49:24.523Z,95149.19
2022-09-11T15:51:53.801Z,95153.25
2022-09-11T15:54:23.663Z,95151.22
2022-09-11T15:56:52.185Z,95150.41
2022-09-11T15:59:20.042Z,95145.53
2022-09-11T16:01:47.815Z,95149.06
2022-09-11T16:04:18.651Z,95146.84
2022-09-11T16:06:48.403Z,95141.13
2022-09-11T16:09:18.232Z,95142.84
2022-09-11T16:11:48.872Z,95147.78
2022-09-11T16:14:18.731Z,95148.13
2022-09-11T16:16:47.990Z,95148.47
2022-09-11T16:19:16.008Z,95136.94
2022-09-11T16:21:43.651Z,95141.09
2022-09-11T16:24:14.739Z,95154.19
2022-09-11T16:26:44.073Z,95148.66
2022-09-11T16:29:18.010Z,95145.97
2022-09-11T16:31:45.618Z,95149.00
2022-09-11T16:34:15.051Z,95147.72
2022-09-11T16:36:42.689Z,95147.50
2022-09-11T16:39:12.235Z,95149.22
2022-09-11T16:41:39.919Z,95149.78
2022-09-11T16:44:10.979Z,95139.63
2022-09-11T16:46:40.613Z,95140.47
2022-09-11T16:49:08.863Z,95149.31
2022-09-11T16:51:36.650Z,95146.84
2022-09-11T16:54:04.604Z,95142.72
2022-09-11T16:56:32.411Z,95141.38
2022-09-11T16:59:00.308Z,95144.81
2022-09-11T17:01:29.251Z,95146.78
2022-09-11T17:03:58.833Z,95141.59
2022-09-11T17:06:29.947Z,95136.91
2022-09-11T17:09:00.111Z,95133.91
2022-09-11T17:11:28.702Z,95128.97
2022-09-11T17:13:56.444Z,95131.22
2022-09-11T17:16:26.311Z,95131.50
2022-09-11T17:18:56.441Z,95131.25
2022-09-11T17:21:26.613Z,95129.41
2022-09-11T17:23:56.237Z,95123.34
2022-09-11T17:26:24.941Z,95127.53
2022-09-11T17:28:52.958Z,95121.78
2022-09-11T17:31:21.052Z,95124.81
2022-09-11T17:33:49.477Z,95129.22
2022-09-11T17:36:18.774Z,95123.22
2022-09-11T17:38:49.315Z,95128.19
2022-09-11T17:41:17.466Z,95121.06
2022-09-11T17:43:45.351Z,95135.34
2022-09-11T17:46:15.141Z,95129.59
2022-09-11T17:48:43.339Z,95124.38
2022-09-11T17:51:13.062Z,95134.84
2022-09-11T17:53:42.291Z,95128.03
2022-09-11T17:56:13.167Z,95131.31
2022-09-11T17:58:41.277Z,95151.41
2022-09-11T18:01:11.639Z,95145.38
2022-09-11T18:03:41.292Z,95145.69
2022-09-11T18:06:19.024Z,95142.13
2022-09-11T18:08:47.385Z,95144.88
2022-09-11T18:11:16.401Z,95150.41
2022-09-11T18:13:44.331Z,95154.78
2022-09-11T18:16:12.106Z,95153.72
2022-09-11T18:18:40.463Z,95161.69
2022-09-11T18:21:09.346Z,95154.28
2022-09-11T18:23:41.026Z,95156.19
2022-09-11T18:26:10.156Z,95155.94
2022-09-11T18:28:40.670Z,95157.03
2022-09-11T18:31:09.200Z,95153.47
2022-09-11T18:33:37.456Z,95153.75
2022-09-11T18:36:07.951Z,95152.09
2022-09-11T18:38:36.024Z,95155.94
2022-09-11T18:41:03.759Z,95149.88
2022-09-11T18:43:31.555Z,95150.41
2022-09-11T18:46:03.169Z,95160.59
2022-09-11T18:48:30.887Z,95153.72
2022-09-11T18:51:00.181Z,95153.44
2022-09-11T18:53:27.983Z,95147.69
2022-09-11T18:56:01.915Z,95152.59
2022-09-11T18:58:31.179Z,95153.69
2022-09-11T19:01:01.880Z,95153.91
2022-09-11T19:03:30.111Z,95161.31
2022-09-11T19:06:02.503Z,95160.44
2022-09-11T19:08:30.417Z,95159.34
2022-09-11T19:10:58.010Z,95160.16
2022-09-11T19:13:25.846Z,95159.03
2022-09-11T19:15:57.009Z,95163.91
2022-09-11T19:18:26.574Z,95166.00
2022-09-11T19:20:57.809Z,95159.31
2022-09-11T19:23:25.682Z,95157.94
2022-09-11T19:25:53.338Z,95161.97
2022-09-11T19:28:21.105Z,95168.81
2022-09-11T19:30:55.522Z,95170.69
2022-09-11T19:33:23.172Z,95164.06
2022-09-11T19:35:57.329Z,95171.06
2022-09-11T19:38:26.407Z,95167.50
2022-09-11T19:40:54.409Z,95171.81
2022-09-11T19:43:23.694Z,95167.41
2022-09-11T19:45:51.394Z,95164.91
2022-09-11T19:48:19.550Z,95170.34
2022-09-11T19:50:47.345Z,95166.56
2022-09-11T19:53:17.191Z,95162.16
2022-09-11T19:55:44.919Z,95156.13
2022-09-11T19:58:12.566Z,95152.75
2022-09-11T20:00:40.234Z,95165.25
2022-09-11T20:03:07.869Z,95166.09
2022-09-11T20:05:35.642Z,95154.91
2022-09-11T20:08:03.765Z,95164.09
2022-09-11T20:10:33.546Z,95164.22
2022-09-11T20:13:01.153Z,95154.31
2022-09-11T20:15:29.034Z,95158.06
2022-09-11T20:17:56.720Z,95163.78
2022-09-11T20:20:24.415Z,95165.97
2022-09-11T20:22:52.067Z,95169.81
2022-09-11T20:25:19.756Z,95167.63
2022-09-11T20:27:48.955Z,95168.94
2022-09-11T20:30:16.638Z,95161.59
2022-09-11T20:32:44.379Z,95167.19
2022-09-11T20:35:12.110Z,95161.59
2022-09-11T20:37:39.777Z,95159.97
2022-09-11T20:40:08.756Z,95155.22
2022-09-11T20:42:36.579Z,95152.13
2022-09-11T20:45:06.367Z,95150.97
2022-09-11T20:47:34.076Z,95151.16
2022-09-11T20:50:01.769Z,95157.72
2022-09-11T20:52:30.429Z,95153.06
2022-09-11T20:54:58.353Z,95153.94
2022-09-11T20:57:26.091Z,95149.59
2022-09-11T20:59:53.752Z,95149.53
2022-09-11T21:02:22.826Z,95154.63
2022-09-11T21:04:50.557Z,95159.84
2022-09-11T21:07:18.207Z,95158.16
2022-09-11T21:09:46.207Z,95150.41
2022-09-11T21:12:13.824Z,95155.81
2022-09-11T21:14:43.044Z,95159.03
2022-09-11T21:17:10.655Z,95157.38
2022-09-11T21:19:39.629Z,95157.31
2022-09-11T21:22:07.306Z,95158.91
2022-09-11T21:24:35.615Z,95160.22
2022-09-11T21:27:03.240Z,95157.91
2022-09-11T21:29:31.009Z,95158.72
2022-09-11T21:31:58.656Z,95153.44
2022-09-11T21:34:26.314Z,95154.72
2022-09-11T21:36:55.313Z,95150.72
2022-09-11T21:39:22.993Z,95146.59
2022-09-11T21:41:50.821Z,95151.22
2022-09-11T21:44:18.407Z,95149.84
2022-09-11T21:46:46.102Z,95151.06
2022-09-11T21:49:13.818Z,95148.84
2022-09-11T21:51:41.744Z,95147.28
2022-09-11T21:54:10.754Z,95145.69
2022-09-11T21:56:38.454Z,95146.03
2022-09-11T21:59:06.215Z,95143.88
2022-09-11T22:01:34.410Z,95146.28
2022-09-11T22:04:02.628Z,95142.81
2022-09-11T22:06:31.026Z,95138.94
2022-09-11T22:08:58.814Z,95139.50
2022-09-11T22:11:27.991Z,95143.06
2022-09-11T22:13:55.730Z,95146.63
2022-09-11T22:16:23.646Z,95143.28
2022-09-11T22:18:52.997Z,95149.00
2022-09-11T22:21:20.842Z,95153.31
2022-09-11T22:23:48.484Z,95150.41
2022-09-11T22:26:17.809Z,95152.34
2022-09-11T22:28:47.053Z,95154.38
2022-09-11T22:31:16.219Z,95143.63
2022-09-11T22:33:44.280Z,95139.75
2022-09-11T22:36:13.942Z,95147.38
2022-09-11T22:38:42.611Z,95149.72
2022-09-11T22:41:10.657Z,95153.38
2022-09-11T22:43:38.428Z,95148.50
2022-09-11T22:46:07.575Z,95153.47
2022-09-11T22:48:35.704Z,95143.72
2022-09-11T22:51:04.795Z,95141.84
2022-09-11T22:53:32.747Z,95138.50
2022-09-11T22:56:00.475Z,95137.13
2022-09-11T22:58:29.636Z,95136.31
2022-09-11T23:00:57.701Z,95143.38
2022-09-11T23:03:26.696Z,95135.22
2022-09-11T23:06:13.942Z,95139.09
2022-09-11T23:08:41.762Z,95131.00
2022-09-11T23:11:11.205Z,95134.56
2022-09-11T23:13:38.884Z,95133.31
2022-09-11T23:16:13.027Z,95126.94
2022-09-11T23:18:42.381Z,95129.09
2022-09-11T23:21:10.958Z,95128.78
2022-09-11T23:23:42.339Z,95128.78
2022-09-11T23:26:10.742Z,95132.31
2022-09-11T23:28:38.588Z,95122.47
2022-09-11T23:31:11.929Z,95118.94
2022-09-11T23:33:39.651Z,95119.19
2022-09-11T23:36:10.301Z,95113.72
2022-09-11T23:38:38.485Z,95112.91
2022-09-11T23:41:07.191Z,95111.81
2022-09-11T23:43:34.829Z,95112.66
2022-09-11T23:46:02.586Z,95112.66
2022-09-11T23:48:30.290Z,95100.91
2022-09-11T23:50:58.051Z,95100.09
2022-09-11T23:53:28.664Z,95098.97
2022-09-11T23:55:56.549Z,95095.63
2022-09-11T23:58:24.528Z,95094.81
